createdAt,value
2018-12-31T16:02:25.588Z,7.13
2018-12-31T16:05:30.588Z,7.01
2018-12-31T16:08:33.994Z,7.07
2018-12-31T16:11:37.357Z,7.03
2018-12-31T16:14:40.682Z,7.07
2018-12-31T16:17:44.090Z,7.12
2018-12-31T16:20:47.484Z,7.11
2018-12-31T16:23:51.351Z,7.21
2018-12-31T16:26:54.934Z,7.13
2018-12-31T16:29:58.256Z,7.19
2018-12-31T16:33:01.593Z,7.21
2018-12-31T16:36:04.969Z,7.16
2018-12-31T16:39:10.556Z,7.18
2018-12-31T16:42:13.915Z,7.22
2018-12-31T16:45:17.313Z,7.18
2018-12-31T16:48:21.054Z,7.19
2018-12-31T16:51:31.169Z,7.15
2018-12-31T16:54:34.625Z,7.15
2018-12-31T16:57:37.993Z,7.22
2018-12-31T17:00:42.889Z,7.16
2018-12-31T17:03:46.313Z,7.05
2018-12-31T17:06:49.663Z,6.99
2018-12-31T17:09:53.061Z,7.08
2018-12-31T17:12:59.449Z,7.11
2018-12-31T17:16:02.769Z,7.09
2018-12-31T17:19:06.161Z,7.08
2018-12-31T17:22:09.504Z,7.07
2018-12-31T17:25:12.904Z,7.06
2018-12-31T17:28:17.881Z,6.99
2018-12-31T17:31:24.557Z,6.99
2018-12-31T17:34:27.958Z,6.95
2018-12-31T17:37:31.289Z,7.12
2018-12-31T17:40:36.243Z,7.02
2018-12-31T17:43:39.693Z,6.99
2018-12-31T17:46:43.095Z,7.03
2018-12-31T17:49:46.444Z,7.02
2018-12-31T17:52:51.708Z,6.97
2018-12-31T17:55:55.032Z,7.02
2018-12-31T17:59:00.435Z,6.97
2018-12-31T18:02:03.774Z,6.99
2018-12-31T18:05:08.655Z,6.97
2018-12-31T18:08:12.120Z,7.03
2018-12-31T18:11:15.492Z,7.00
2018-12-31T18:14:39.945Z,7.04
2018-12-31T18:17:43.571Z,7.01
2018-12-31T18:24:36.780Z,6.98
2018-12-31T18:27:40.098Z,6.98
2018-12-31T18:30:43.458Z,7.11
2018-12-31T18:33:48.148Z,7.05
2018-12-31T18:36:51.558Z,6.97
2018-12-31T18:39:57.980Z,6.96
2018-12-31T18:43:01.499Z,6.94
2018-12-31T18:46:04.872Z,6.92
2018-12-31T18:49:10.368Z,6.96
2018-12-31T18:52:13.800Z,6.97
2018-12-31T18:55:17.178Z,7.01
2018-12-31T18:58:20.636Z,6.96
2018-12-31T19:01:44.051Z,7.02
2018-12-31T19:04:46.794Z,7.10
2018-12-31T19:07:50.232Z,7.05
2018-12-31T19:10:53.894Z,7.05
2018-12-31T19:13:57.480Z,7.13
2018-12-31T19:17:03.567Z,7.24
2018-12-31T19:20:07.516Z,7.25
2018-12-31T19:23:10.908Z,7.22
2018-12-31T19:26:14.274Z,7.24
2018-12-31T19:29:30.180Z,7.21
2018-12-31T19:32:33.564Z,7.20
2018-12-31T19:35:37.020Z,7.16
2018-12-31T19:38:40.808Z,7.14
2018-12-31T19:41:44.427Z,7.18
